METAR Data
IDs: Format: Raw Decoded Include TAF

Data at: 2150 UTC 22 Sep 2020

KAIG 222135Z AUTO 23004KT 10SM CLR 25/12 A3006 RMK AO2 T02470115
KAIG 222115Z AUTO 23005KT 10SM CLR 25/12 A3007 RMK AO2 T02500119
KAIG 222055Z AUTO 25004KT 10SM CLR 25/12 A3007 RMK AO2 60003 T02500115
KAIG 222035Z AUTO 24008KT 10SM CLR 25/12 A3008 RMK AO2 T02530122
KAIG 222015Z AUTO 23008KT 10SM CLR 25/12 A3008 RMK AO2 T02520123
KAIG 221955Z AUTO 20004KT 10SM CLR 25/13 A3008 RMK AO2 P0003 T02540129
KAIG 221915Z AUTO 19003KT 10SM CLR 26/13 A3009 RMK AO2 T02570131
KAIG 221855Z AUTO 26006KT 10SM CLR 25/12 A3010 RMK AO2 T02490123
KAIG 221835Z AUTO 22004KT 10SM CLR 25/13 A3011 RMK AO2 T02510126
KAIG 221815Z AUTO 27003KT 10SM CLR 25/13 A3011 RMK AO2 T02450131
KAIG 221755Z AUTO 00000KT 10SM CLR 24/14 A3011 RMK AO2 T02390136 10239 20084
KAIG 221735Z AUTO 00000KT 10SM CLR 24/14 A3013 RMK AO2 T02350136
KAIG 221715Z AUTO 24004KT 10SM CLR 23/14 A3014 RMK AO2 T02280143
KAIG 221655Z AUTO 26003KT 10SM CLR 22/14 A3014 RMK AO2 T02210144
KAIG 221635Z AUTO 00000KT 10SM CLR 21/14 A3014 RMK AO2 T02140142
KAIG 221615Z AUTO 00000KT 10SM CLR 21/14 A3015 RMK AO2 T02050140
KAIG 221555Z AUTO 00000KT 10SM CLR 20/14 A3015 RMK AO2 T02000138
KAIG 221535Z AUTO 26004KT 10SM CLR 19/14 A3016 RMK AO2 T01920136
KAIG 221515Z AUTO 27003KT 10SM CLR 18/13 A3016 RMK AO2 T01830130
KAIG 221455Z AUTO 28005KT 10SM CLR 18/13 A3016 RMK AO2 T01770127
KAIG 221435Z AUTO 28005KT 10SM CLR 16/12 A3017 RMK AO2 T01640120
KAIG 221415Z AUTO 28003KT 10SM CLR 15/11 A3017 RMK AO2 T01530113
KAIG 221355Z AUTO 26006KT 10SM CLR 15/11 A3016 RMK AO2 T01450108
KAIG 221335Z AUTO 00000KT 10SM CLR 13/11 A3016 RMK AO2 T01250105
KAIG 221315Z AUTO 00000KT 10SM CLR 11/10 A3016 RMK AO2 T01090097
KAIG 221255Z AUTO 00000KT 10SM CLR 10/09 A3016 RMK AO2 T00960089
KAIG 221235Z AUTO 00000KT 10SM CLR 09/09 A3016 RMK AO2 T00900085
KAIG 221215Z AUTO 00000KT 10SM CLR 09/08 A3016 RMK AO2 T00870080
KAIG 221155Z AUTO 00000KT 10SM CLR 08/08 A3015 RMK AO2 T00830079 10137 20083
KAIG 221135Z AUTO 00000KT 10SM CLR 09/08 A3015 RMK AO2 T00860080
KAIG 221115Z AUTO 00000KT 10SM CLR 09/08 A3015 RMK AO2 T00850075
KAIG 221055Z AUTO 00000KT 10SM CLR 11/09 A3015 RMK AO2 T01090086
KAIG 221035Z AUTO 00000KT 10SM CLR 11/09 A3015 RMK AO2 T01080087
KAIG 221015Z AUTO 24003KT 10SM CLR 11/09 A3015 RMK AO2 T01100087
KAIG 220955Z AUTO 24005KT 10SM CLR 11/09 A3015 RMK AO2 T01120087
KAIG 220935Z AUTO 25005KT 10SM CLR 11/08 A3015 RMK AO2 T01080083
KAIG 220915Z AUTO 24003KT 10SM CLR 11/08 A3015 RMK AO2 T01100083
KAIG 220855Z AUTO 23003KT 10SM CLR 11/08 A3016 RMK AO2 T01080082
KAIG 220835Z AUTO 22004KT 10SM CLR 11/08 A3016 RMK AO2 T01130083
KAIG 220815Z AUTO 22005KT 10SM CLR 12/09 A3017 RMK AO2 T01200085
KAIG 220755Z AUTO 22006KT 10SM CLR 13/09 A3017 RMK AO2 T01260085
KAIG 220735Z AUTO 21007KT 10SM CLR 13/09 A3017 RMK AO2 T01320085
KAIG 220715Z AUTO 21006KT 10SM CLR 13/09 A3016 RMK AO2 T01310085
KAIG 220655Z AUTO 21007KT 10SM CLR 13/09 A3016 RMK AO2 T01330085
KAIG 220635Z AUTO 21009KT 10SM CLR 14/09 A3017 RMK AO2 T01350085
KAIG 220615Z AUTO 21008KT 10SM CLR 14/09 A3017 RMK AO2 T01360085
KAIG 220555Z AUTO 21007KT 10SM CLR 13/09 A3017 RMK AO2 T01330085 10168 20126
KAIG 220535Z AUTO 20006KT 10SM CLR 13/09 A3017 RMK AO2 T01260085
KAIG 220515Z AUTO 20006KT 10SM CLR 13/09 A3018 RMK AO2 T01300086
KAIG 220455Z AUTO 20006KT 10SM CLR 13/09 A3018 RMK AO2 T01330087
KAIG 220435Z AUTO 20007KT 10SM CLR 13/09 A3018 RMK AO2 T01330087
KAIG 220415Z AUTO 20008KT 10SM CLR 14/09 A3018 RMK AO2 T01380087
KAIG 220355Z AUTO 20008KT 10SM CLR 14/09 A3018 RMK AO2 T01410087 402110069
KAIG 220335Z AUTO 20007KT 10SM CLR 15/09 A3019 RMK AO2 T01460087
KAIG 220315Z AUTO 20008KT 10SM CLR 15/09 A3019 RMK AO2 T01500087
KAIG 220255Z AUTO 21007KT 10SM CLR 15/09 A3018 RMK AO2 T01460088
KAIG 220235Z AUTO 21007KT 10SM SCT110 15/09 A3018 RMK AO2 T01470091
KAIG 220215Z AUTO 21008KT 10SM BKN100 15/09 A3018 RMK AO2 T01530094
KAIG 220155Z AUTO 22008KT 10SM OVC100 16/10 A3018 RMK AO2 T01550095
KAIG 220135Z AUTO 21006KT 10SM OVC100 16/09 A3017 RMK AO2 T01560094
KAIG 220115Z AUTO 18009KT 10SM OVC110 16/09 A3016 RMK AO2 T01590094
KAIG 220055Z AUTO 18010KT 10SM -RA SCT080 BKN110 16/10 A3016 RMK AO2 T01550100
KAIG 220035Z AUTO 18008G14KT 10SM SCT060 SCT080 SCT120 16/10 A3017 RMK AO2 T01590099
KAIG 220015Z AUTO 18008KT 10SM -DZ SCT060 SCT080 BKN100 17/10 A3017 RMK AO2 T01670096
KAIG 212355Z AUTO 17007KT 5SM HZ SCT100 SCT120 17/10 A3017 RMK AO2 T01670098 10211 20167
KAIG 212335Z AUTO 18006KT 10SM SCT120 17/10 A3019 RMK AO2 T01700101
KAIG 212315Z AUTO 19005KT 10SM CLR 18/10 A3020 RMK AO2 T01750101
KAIG 212255Z AUTO 20007KT 10SM SCT120 18/10 A3020 RMK AO2 T01830100
KAIG 212235Z AUTO 20007KT 10SM BKN120 19/10 A3019 RMK AO2 T01860101
KAIG 212215Z AUTO 19011G15KT 10SM SCT120 19/10 A3017 RMK AO2 T01920103
KAIG 212155Z AUTO 19009G15KT 10SM SCT110 20/10 A3017 RMK AO2 T02000100
KAIG 212135Z AUTO 20009KT 10SM SCT110 21/10 A3017 RMK AO2 T02100104
KAIG 212115Z AUTO 19010KT 10SM BKN110 21/10 A3018 RMK AO2 T02050101
KAIG 212055Z AUTO 19009G20KT 10SM SCT120 21/10 A3018 RMK AO2 T02050098
KAIG 212035Z AUTO 21013G19KT 10SM CLR 20/09 A3019 RMK AO2 T02030094
KAIG 212015Z AUTO 18011G16KT 10SM CLR 21/09 A3019 RMK AO2 T02100094
KAIG 211955Z AUTO 19011G15KT 10SM CLR 21/09 A3020 RMK AO2 T02060093
KAIG 211935Z AUTO 19013G17KT 10SM CLR 20/09 A3021 RMK AO2 T01950087
KAIG 211915Z AUTO 21014KT 10SM CLR 21/09 A3022 RMK AO2 T02050086
KAIG 211855Z AUTO 21011G17KT 10SM CLR 21/09 A3022 RMK AO2 T02060087
KAIG 211835Z AUTO 19014KT 10SM CLR 20/08 A3023 RMK AO2 T02020084
KAIG 211815Z AUTO 20015G20KT 10SM CLR 20/08 A3024 RMK AO2 T01990081
KAIG 211755Z AUTO 20014G19KT 10SM CLR 20/08 A3025 RMK AO2 T01960077 10196 20075
KAIG 211735Z AUTO 20010KT 10SM CLR 19/08 A3026 RMK AO2 T01900078
KAIG 211715Z AUTO 20011G16KT 10SM CLR 19/07 A3026 RMK AO2 T01850073
KAIG 211655Z AUTO 21012G18KT 10SM CLR 18/07 A3027 RMK AO2 T01750067
KAIG 211635Z AUTO 20010G15KT 10SM CLR 16/07 A3028 RMK AO2 T01630068
KAIG 211615Z AUTO 20009KT 10SM CLR 16/06 A3028 RMK AO2 T01570063
KAIG 211555Z AUTO 20008KT 10SM CLR 15/06 A3029 RMK AO2 T01540063
KAIG 211535Z AUTO 20008KT 10SM CLR 15/06 A3029 RMK AO2 T01510063
KAIG 211515Z AUTO 20008KT 10SM CLR 14/06 A3030 RMK AO2 T01360063
KAIG 211455Z AUTO 20009KT 10SM CLR 13/06 A3030 RMK AO2 T01300058
KAIG 211435Z AUTO 19010KT 10SM CLR 13/06 A3030 RMK AO2 T01250064
KAIG 211415Z AUTO 19007KT 10SM CLR 11/06 A3030 RMK AO2 T01110058
KAIG 211355Z AUTO 19009KT 10SM CLR 11/06 A3030 RMK AO2 T01100057
KAIG 211335Z AUTO 19010KT 10SM CLR 11/06 A3030 RMK AO2 T01060063
KAIG 211315Z AUTO 19007KT 10SM CLR 09/06 A3031 RMK AO2 T00900060
KAIG 211255Z AUTO 19007KT 10SM CLR 10/06 A3031 RMK AO2 T00950063
KAIG 211235Z AUTO 17006KT 10SM CLR 09/06 A3030 RMK AO2 T00890063
KAIG 211215Z AUTO 18009KT 10SM CLR 08/06 A3030 RMK AO2 T00820060
KAIG 211155Z AUTO 17006KT 10SM CLR 08/06 A3031 RMK AO2 T00750058 10088 20069
KAIG 211135Z AUTO 18006KT 10SM CLR 08/06 A3031 RMK AO2 T00750058
KAIG 211115Z AUTO 17007KT 10SM CLR 07/06 A3031 RMK AO2 T00700057
KAIG 211055Z AUTO 18005KT 10SM CLR 07/06 A3031 RMK AO2 T00710057
KAIG 211035Z AUTO 18005KT 10SM CLR 08/06 A3031 RMK AO2 T00750058
KAIG 211015Z AUTO 19005KT 10SM CLR 08/06 A3030 RMK AO2 T00780058
KAIG 210955Z AUTO 18006KT 10SM CLR 09/06 A3030 RMK AO2 T00850061